Terminal Aerodrome Forecast
Issued by NWS

Home | Current Version | Previous Version | Text Only | Print | Product List | Glossary On
Versions: 1 2 3 4 5 6 7 8 9 10 11 12 13 14 15 16 17
000
FTUS44 KMAF 220500
TAFFST
TAF
KFST 220532Z 2206/2306 11007KT P6SM OVC060
      TEMPO 2206/2209 4SM TSRA BR OVC020CB
     FM220900 11008KT P6SM OVC015
      TEMPO 2209/2213 3SM -RA BR OVC005=

USA.gov is the U.S. government's official web portal to all federal, state and local government web resources and services.